sensor_id;sensor_type;location;lat;lon;timestamp;P1;durP1;ratioP1;P2;durP2;ratioP2
27223;SDS011;14965;50.660;13.226;2022-08-19T00:00:29;77.22;;;50.63;;
27223;SDS011;14965;50.660;13.226;2022-08-19T00:02:57;75.38;;;50.90;;
27223;SDS011;14965;50.660;13.226;2022-08-19T00:05:23;78.43;;;50.17;;
27223;SDS011;14965;50.660;13.226;2022-08-19T00:07:49;78.10;;;52.00;;
27223;SDS011;14965;50.660;13.226;2022-08-19T00:10:15;79.97;;;52.20;;
27223;SDS011;14965;50.660;13.226;2022-08-19T00:12:43;84.38;;;55.00;;
27223;SDS011;14965;50.660;13.226;2022-08-19T00:15:10;76.03;;;52.33;;
27223;SDS011;14965;50.660;13.226;2022-08-19T00:17:41;82.88;;;54.22;;
27223;SDS011;14965;50.660;13.226;2022-08-19T00:20:11;103.47;;;57.17;;
27223;SDS011;14965;50.660;13.226;2022-08-19T00:22:44;73.22;;;50.95;;
27223;SDS011;14965;50.660;13.226;2022-08-19T00:25:10;71.97;;;49.97;;
27223;SDS011;14965;50.660;13.226;2022-08-19T00:27:37;73.55;;;50.75;;
27223;SDS011;14965;50.660;13.226;2022-08-19T00:30:03;76.50;;;51.47;;
27223;SDS011;14965;50.660;13.226;2022-08-19T00:34:58;77.00;;;51.08;;
27223;SDS011;14965;50.660;13.226;2022-08-19T00:37:25;81.20;;;52.20;;
27223;SDS011;14965;50.660;13.226;2022-08-19T00:39:52;81.00;;;53.75;;
27223;SDS011;14965;50.660;13.226;2022-08-19T00:42:19;80.60;;;52.63;;
27223;SDS011;14965;50.660;13.226;2022-08-19T00:44:46;77.05;;;52.67;;
27223;SDS011;14965;50.660;13.226;2022-08-19T00:47:13;78.97;;;53.17;;
27223;SDS011;14965;50.660;13.226;2022-08-19T00:49:40;76.38;;;52.40;;
27223;SDS011;14965;50.660;13.226;2022-08-19T00:52:13;74.93;;;53.08;;
27223;SDS011;14965;50.660;13.226;2022-08-19T00:54:45;77.53;;;53.10;;
27223;SDS011;14965;50.660;13.226;2022-08-19T00:57:14;90.95;;;55.40;;
27223;SDS011;14965;50.660;13.226;2022-08-19T00:59:44;79.10;;;53.35;;
27223;SDS011;14965;50.660;13.226;2022-08-19T01:02:16;78.18;;;53.33;;
27223;SDS011;14965;50.660;13.226;2022-08-19T01:04:42;73.70;;;51.38;;
27223;SDS011;14965;50.660;13.226;2022-08-19T01:07:08;84.60;;;54.22;;
27223;SDS011;14965;50.660;13.226;2022-08-19T01:09:34;82.75;;;54.60;;
27223;SDS011;14965;50.660;13.226;2022-08-19T01:12:01;84.57;;;53.92;;
27223;SDS011;14965;50.660;13.226;2022-08-19T01:14:28;108.22;;;56.67;;
27223;SDS011;14965;50.660;13.226;2022-08-19T01:16:55;69.57;;;49.92;;
27223;SDS011;14965;50.660;13.226;2022-08-19T01:19:24;83.45;;;53.13;;
27223;SDS011;14965;50.660;13.226;2022-08-19T01:21:55;79.72;;;52.28;;
27223;SDS011;14965;50.660;13.226;2022-08-19T01:24:28;76.63;;;51.35;;
27223;SDS011;14965;50.660;13.226;2022-08-19T01:26:54;74.90;;;50.45;;
27223;SDS011;14965;50.660;13.226;2022-08-19T01:29:20;62.13;;;46.20;;
27223;SDS011;14965;50.660;13.226;2022-08-19T01:31:46;83.13;;;49.50;;
27223;SDS011;14965;50.660;13.226;2022-08-19T01:34:12;67.22;;;47.70;;
27223;SDS011;14965;50.660;13.226;2022-08-19T01:36:38;63.28;;;46.17;;
27223;SDS011;14965;50.660;13.226;2022-08-19T01:39:08;64.32;;;46.22;;
27223;SDS011;14965;50.660;13.226;2022-08-19T01:41:38;63.75;;;46.58;;
27223;SDS011;14965;50.660;13.226;2022-08-19T01:44:05;65.55;;;47.15;;
27223;SDS011;14965;50.660;13.226;2022-08-19T01:46:33;65.50;;;46.28;;
27223;SDS011;14965;50.660;13.226;2022-08-19T01:48:59;66.18;;;46.45;;
27223;SDS011;14965;50.660;13.226;2022-08-19T01:51:26;67.57;;;48.95;;
27223;SDS011;14965;50.660;13.226;2022-08-19T01:53:53;73.78;;;47.92;;
27223;SDS011;14965;50.660;13.226;2022-08-19T01:56:19;76.88;;;50.05;;
27223;SDS011;14965;50.660;13.226;2022-08-19T01:58:47;66.75;;;48.63;;
27223;SDS011;14965;50.660;13.226;2022-08-19T02:01:18;65.78;;;48.47;;
27223;SDS011;14965;50.660;13.226;2022-08-19T02:03:45;79.90;;;51.42;;
27223;SDS011;14965;50.660;13.226;2022-08-19T02:06:11;76.35;;;50.50;;
27223;SDS011;14965;50.660;13.226;2022-08-19T02:08:37;75.80;;;51.10;;
27223;SDS011;14965;50.660;13.226;2022-08-19T02:11:06;78.82;;;50.40;;
27223;SDS011;14965;50.660;13.226;2022-08-19T02:13:32;93.63;;;52.50;;
27223;SDS011;14965;50.660;13.226;2022-08-19T02:16:01;80.00;;;50.25;;
27223;SDS011;14965;50.660;13.226;2022-08-19T02:18:27;81.68;;;50.95;;
27223;SDS011;14965;50.660;13.226;2022-08-19T02:20:53;68.68;;;48.28;;
27223;SDS011;14965;50.660;13.226;2022-08-19T02:23:19;75.22;;;51.25;;
27223;SDS011;14965;50.660;13.226;2022-08-19T02:25:46;80.55;;;51.33;;
27223;SDS011;14965;50.660;13.226;2022-08-19T02:28:13;76.50;;;50.45;;
27223;SDS011;14965;50.660;13.226;2022-08-19T02:30:40;73.93;;;51.25;;
27223;SDS011;14965;50.660;13.226;2022-08-19T02:33:08;81.93;;;53.17;;
27223;SDS011;14965;50.660;13.226;2022-08-19T02:35:33;84.25;;;53.35;;
27223;SDS011;14965;50.660;13.226;2022-08-19T02:38:00;80.93;;;52.78;;
27223;SDS011;14965;50.660;13.226;2022-08-19T02:40:25;80.40;;;50.63;;
27223;SDS011;14965;50.660;13.226;2022-08-19T02:42:51;81.72;;;52.20;;
27223;SDS011;14965;50.660;13.226;2022-08-19T02:45:17;74.30;;;48.92;;
27223;SDS011;14965;50.660;13.226;2022-08-19T02:47:44;71.47;;;48.55;;
27223;SDS011;14965;50.660;13.226;2022-08-19T02:50:11;75.63;;;48.65;;
27223;SDS011;14965;50.660;13.226;2022-08-19T02:52:37;67.53;;;46.78;;
27223;SDS011;14965;50.660;13.226;2022-08-19T02:55:03;72.85;;;46.75;;
27223;SDS011;14965;50.660;13.226;2022-08-19T02:57:31;69.28;;;45.63;;
27223;SDS011;14965;50.660;13.226;2022-08-19T02:59:57;63.40;;;42.78;;
27223;SDS011;14965;50.660;13.226;2022-08-19T03:02:24;68.00;;;43.45;;
27223;SDS011;14965;50.660;13.226;2022-08-19T03:04:50;73.90;;;43.05;;
27223;SDS011;14965;50.660;13.226;2022-08-19T03:07:17;59.28;;;39.28;;
27223;SDS011;14965;50.660;13.226;2022-08-19T03:09:43;60.77;;;39.73;;
27223;SDS011;14965;50.660;13.226;2022-08-19T03:12:10;63.53;;;38.92;;
27223;SDS011;14965;50.660;13.226;2022-08-19T03:14:36;51.30;;;35.22;;
27223;SDS011;14965;50.660;13.226;2022-08-19T03:17:02;43.10;;;31.60;;
27223;SDS011;14965;50.660;13.226;2022-08-19T03:19:29;44.80;;;33.22;;
27223;SDS011;14965;50.660;13.226;2022-08-19T03:21:55;48.25;;;34.38;;
27223;SDS011;14965;50.660;13.226;2022-08-19T03:24:23;49.08;;;34.60;;
27223;SDS011;14965;50.660;13.226;2022-08-19T03:26:50;46.17;;;32.72;;
27223;SDS011;14965;50.660;13.226;2022-08-19T03:29:18;52.05;;;32.25;;
27223;SDS011;14965;50.660;13.226;2022-08-19T03:31:44;44.53;;;31.90;;
27223;SDS011;14965;50.660;13.226;2022-08-19T03:34:12;42.55;;;30.80;;
27223;SDS011;14965;50.660;13.226;2022-08-19T03:36:40;44.78;;;32.10;;
27223;SDS011;14965;50.660;13.226;2022-08-19T03:39:06;44.28;;;32.28;;
27223;SDS011;14965;50.660;13.226;2022-08-19T03:41:37;39.95;;;30.48;;
27223;SDS011;14965;50.660;13.226;2022-08-19T03:44:05;47.70;;;34.20;;
27223;SDS011;14965;50.660;13.226;2022-08-19T03:46:32;44.42;;;31.77;;
27223;SDS011;14965;50.660;13.226;2022-08-19T03:48:59;43.03;;;31.50;;
27223;SDS011;14965;50.660;13.226;2022-08-19T03:51:28;46.00;;;32.53;;
27223;SDS011;14965;50.660;13.226;2022-08-19T03:53:57;46.33;;;31.15;;
27223;SDS011;14965;50.660;13.226;2022-08-19T03:56:26;39.72;;;30.25;;
27223;SDS011;14965;50.660;13.226;2022-08-19T03:58:54;45.80;;;31.67;;
27223;SDS011;14965;50.660;13.226;2022-08-19T04:01:22;48.22;;;33.40;;
27223;SDS011;14965;50.660;13.226;2022-08-19T04:03:51;51.70;;;32.97;;
27223;SDS011;14965;50.660;13.226;2022-08-19T04:06:19;45.72;;;32.50;;
27223;SDS011;14965;50.660;13.226;2022-08-19T04:11:16;47.50;;;32.70;;
27223;SDS011;14965;50.660;13.226;2022-08-19T04:13:45;45.53;;;32.15;;
27223;SDS011;14965;50.660;13.226;2022-08-19T04:16:12;48.45;;;33.38;;
27223;SDS011;14965;50.660;13.226;2022-08-19T04:18:39;68.47;;;36.42;;
27223;SDS011;14965;50.660;13.226;2022-08-19T04:21:07;50.58;;;34.75;;
27223;SDS011;14965;50.660;13.226;2022-08-19T04:23:39;53.35;;;33.25;;
27223;SDS011;14965;50.660;13.226;2022-08-19T04:26:05;43.97;;;31.65;;
27223;SDS011;14965;50.660;13.226;2022-08-19T04:28:31;52.10;;;32.33;;
27223;SDS011;14965;50.660;13.226;2022-08-19T04:30:57;44.33;;;30.77;;
27223;SDS011;14965;50.660;13.226;2022-08-19T04:33:24;53.10;;;33.78;;
27223;SDS011;14965;50.660;13.226;2022-08-19T04:35:51;45.55;;;32.83;;
27223;SDS011;14965;50.660;13.226;2022-08-19T04:38:19;50.58;;;33.65;;
27223;SDS011;14965;50.660;13.226;2022-08-19T04:40:47;51.75;;;34.45;;
27223;SDS011;14965;50.660;13.226;2022-08-19T04:43:15;55.00;;;37.03;;
27223;SDS011;14965;50.660;13.226;2022-08-19T04:45:41;68.40;;;38.33;;
27223;SDS011;14965;50.660;13.226;2022-08-19T04:48:07;54.78;;;35.33;;
27223;SDS011;14965;50.660;13.226;2022-08-19T04:50:34;66.10;;;39.88;;
27223;SDS011;14965;50.660;13.226;2022-08-19T04:53:00;117.78;;;41.63;;
27223;SDS011;14965;50.660;13.226;2022-08-19T04:55:26;73.45;;;38.55;;
27223;SDS011;14965;50.660;13.226;2022-08-19T04:57:52;132.00;;;42.67;;
27223;SDS011;14965;50.660;13.226;2022-08-19T05:00:19;76.78;;;41.35;;
27223;SDS011;14965;50.660;13.226;2022-08-19T05:02:45;92.32;;;39.78;;
27223;SDS011;14965;50.660;13.226;2022-08-19T05:05:11;127.70;;;41.10;;
27223;SDS011;14965;50.660;13.226;2022-08-19T05:07:38;102.82;;;41.10;;
27223;SDS011;14965;50.660;13.226;2022-08-19T05:10:04;87.45;;;39.33;;
27223;SDS011;14965;50.660;13.226;2022-08-19T05:12:31;68.53;;;36.90;;
27223;SDS011;14965;50.660;13.226;2022-08-19T05:14:59;69.78;;;37.03;;
27223;SDS011;14965;50.660;13.226;2022-08-19T05:17:29;78.95;;;37.45;;
27223;SDS011;14965;50.660;13.226;2022-08-19T05:19:56;82.57;;;38.35;;
27223;SDS011;14965;50.660;13.226;2022-08-19T05:22:22;74.82;;;34.45;;
27223;SDS011;14965;50.660;13.226;2022-08-19T05:24:49;51.58;;;31.80;;
27223;SDS011;14965;50.660;13.226;2022-08-19T05:27:15;45.47;;;29.70;;
27223;SDS011;14965;50.660;13.226;2022-08-19T05:29:41;46.75;;;28.45;;
27223;SDS011;14965;50.660;13.226;2022-08-19T05:32:07;44.28;;;26.10;;
27223;SDS011;14965;50.660;13.226;2022-08-19T05:34:32;44.20;;;26.83;;
27223;SDS011;14965;50.660;13.226;2022-08-19T05:36:59;38.08;;;24.25;;
27223;SDS011;14965;50.660;13.226;2022-08-19T05:39:28;39.85;;;24.10;;
27223;SDS011;14965;50.660;13.226;2022-08-19T05:41:58;31.95;;;21.75;;
27223;SDS011;14965;50.660;13.226;2022-08-19T05:44:29;30.77;;;20.65;;
27223;SDS011;14965;50.660;13.226;2022-08-19T05:46:57;31.17;;;20.88;;
27223;SDS011;14965;50.660;13.226;2022-08-19T05:49:25;25.08;;;17.58;;
27223;SDS011;14965;50.660;13.226;2022-08-19T05:51:52;29.05;;;18.55;;
27223;SDS011;14965;50.660;13.226;2022-08-19T05:54:21;25.35;;;17.38;;
27223;SDS011;14965;50.660;13.226;2022-08-19T05:56:48;22.42;;;15.73;;
27223;SDS011;14965;50.660;13.226;2022-08-19T05:59:18;20.55;;;14.52;;
27223;SDS011;14965;50.660;13.226;2022-08-19T06:01:46;19.55;;;13.88;;
27223;SDS011;14965;50.660;13.226;2022-08-19T06:04:13;18.75;;;13.43;;
27223;SDS011;14965;50.660;13.226;2022-08-19T06:06:40;19.88;;;14.02;;
27223;SDS011;14965;50.660;13.226;2022-08-19T06:09:06;17.13;;;12.65;;
27223;SDS011;14965;50.660;13.226;2022-08-19T06:11:33;17.75;;;13.57;;
27223;SDS011;14965;50.660;13.226;2022-08-19T06:14:03;17.25;;;12.52;;
27223;SDS011;14965;50.660;13.226;2022-08-19T06:16:33;19.45;;;12.45;;
27223;SDS011;14965;50.660;13.226;2022-08-19T06:19:02;20.50;;;13.05;;
27223;SDS011;14965;50.660;13.226;2022-08-19T06:21:31;18.42;;;12.63;;
27223;SDS011;14965;50.660;13.226;2022-08-19T06:23:57;21.77;;;13.73;;
27223;SDS011;14965;50.660;13.226;2022-08-19T06:26:24;24.08;;;13.88;;
27223;SDS011;14965;50.660;13.226;2022-08-19T06:28:50;29.85;;;17.15;;
27223;SDS011;14965;50.660;13.226;2022-08-19T06:31:17;34.33;;;18.10;;
27223;SDS011;14965;50.660;13.226;2022-08-19T06:33:49;30.45;;;18.23;;
27223;SDS011;14965;50.660;13.226;2022-08-19T06:36:19;31.63;;;18.90;;
27223;SDS011;14965;50.660;13.226;2022-08-19T06:38:47;34.45;;;21.02;;
27223;SDS011;14965;50.660;13.226;2022-08-19T06:41:13;31.92;;;19.08;;
27223;SDS011;14965;50.660;13.226;2022-08-19T06:43:39;32.85;;;20.85;;
27223;SDS011;14965;50.660;13.226;2022-08-19T06:46:08;33.42;;;19.88;;
27223;SDS011;14965;50.660;13.226;2022-08-19T06:48:37;39.90;;;22.88;;
27223;SDS011;14965;50.660;13.226;2022-08-19T06:51:05;34.03;;;21.95;;
27223;SDS011;14965;50.660;13.226;2022-08-19T06:53:31;38.05;;;23.00;;
27223;SDS011;14965;50.660;13.226;2022-08-19T06:55:56;40.85;;;23.63;;
27223;SDS011;14965;50.660;13.226;2022-08-19T06:58:22;39.55;;;23.55;;
27223;SDS011;14965;50.660;13.226;2022-08-19T07:00:48;39.78;;;23.38;;
27223;SDS011;14965;50.660;13.226;2022-08-19T07:03:15;38.65;;;23.85;;
27223;SDS011;14965;50.660;13.226;2022-08-19T07:05:41;37.75;;;23.00;;
27223;SDS011;14965;50.660;13.226;2022-08-19T07:08:08;41.08;;;24.73;;
27223;SDS011;14965;50.660;13.226;2022-08-19T07:10:34;36.45;;;23.77;;
27223;SDS011;14965;50.660;13.226;2022-08-19T07:13:00;41.47;;;24.63;;
27223;SDS011;14965;50.660;13.226;2022-08-19T07:15:26;39.15;;;23.20;;
27223;SDS011;14965;50.660;13.226;2022-08-19T07:17:53;38.53;;;24.65;;
27223;SDS011;14965;50.660;13.226;2022-08-19T07:20:19;40.25;;;26.23;;
27223;SDS011;14965;50.660;13.226;2022-08-19T07:22:46;36.90;;;25.23;;
27223;SDS011;14965;50.660;13.226;2022-08-19T07:25:13;40.67;;;25.05;;
27223;SDS011;14965;50.660;13.226;2022-08-19T07:27:39;35.15;;;24.23;;
27223;SDS011;14965;50.660;13.226;2022-08-19T07:30:06;39.00;;;25.08;;
27223;SDS011;14965;50.660;13.226;2022-08-19T07:32:33;43.67;;;26.40;;
27223;SDS011;14965;50.660;13.226;2022-08-19T07:34:59;39.63;;;25.42;;
27223;SDS011;14965;50.660;13.226;2022-08-19T07:37:25;38.03;;;25.25;;
27223;SDS011;14965;50.660;13.226;2022-08-19T07:39:51;48.65;;;27.27;;
27223;SDS011;14965;50.660;13.226;2022-08-19T07:42:18;43.88;;;26.88;;
27223;SDS011;14965;50.660;13.226;2022-08-19T07:44:44;35.38;;;24.80;;
27223;SDS011;14965;50.660;13.226;2022-08-19T07:47:10;41.83;;;26.17;;
27223;SDS011;14965;50.660;13.226;2022-08-19T07:49:35;51.35;;;28.35;;
27223;SDS011;14965;50.660;13.226;2022-08-19T07:52:03;54.22;;;29.67;;
27223;SDS011;14965;50.660;13.226;2022-08-19T07:54:33;46.78;;;29.15;;
27223;SDS011;14965;50.660;13.226;2022-08-19T07:57:03;50.55;;;28.42;;
27223;SDS011;14965;50.660;13.226;2022-08-19T07:59:31;48.85;;;28.05;;
27223;SDS011;14965;50.660;13.226;2022-08-19T08:01:58;48.88;;;30.08;;
27223;SDS011;14965;50.660;13.226;2022-08-19T08:04:24;46.17;;;28.75;;
27223;SDS011;14965;50.660;13.226;2022-08-19T08:06:50;55.10;;;31.65;;
27223;SDS011;14965;50.660;13.226;2022-08-19T08:09:17;50.90;;;30.67;;
27223;SDS011;14965;50.660;13.226;2022-08-19T08:11:50;55.85;;;31.92;;
27223;SDS011;14965;50.660;13.226;2022-08-19T08:14:19;56.50;;;31.85;;
27223;SDS011;14965;50.660;13.226;2022-08-19T08:16:50;56.92;;;32.38;;
27223;SDS011;14965;50.660;13.226;2022-08-19T08:19:17;69.97;;;34.27;;
27223;SDS011;14965;50.660;13.226;2022-08-19T08:21:46;59.97;;;32.80;;
27223;SDS011;14965;50.660;13.226;2022-08-19T08:24:13;64.32;;;31.70;;
27223;SDS011;14965;50.660;13.226;2022-08-19T08:26:39;68.22;;;33.83;;
27223;SDS011;14965;50.660;13.226;2022-08-19T08:29:06;59.63;;;31.95;;
27223;SDS011;14965;50.660;13.226;2022-08-19T08:31:32;64.35;;;32.60;;
27223;SDS011;14965;50.660;13.226;2022-08-19T08:33:59;58.50;;;31.10;;
27223;SDS011;14965;50.660;13.226;2022-08-19T08:36:26;55.75;;;29.20;;
27223;SDS011;14965;50.660;13.226;2022-08-19T08:38:51;52.35;;;28.63;;
27223;SDS011;14965;50.660;13.226;2022-08-19T08:41:19;55.92;;;27.95;;
27223;SDS011;14965;50.660;13.226;2022-08-19T08:43:54;50.72;;;28.88;;
27223;SDS011;14965;50.660;13.226;2022-08-19T08:46:24;51.13;;;28.33;;
27223;SDS011;14965;50.660;13.226;2022-08-19T08:49:02;44.00;;;26.27;;
27223;SDS011;14965;50.660;13.226;2022-08-19T08:51:42;55.58;;;29.60;;
27223;SDS011;14965;50.660;13.226;2022-08-19T08:54:13;47.97;;;28.17;;
27223;SDS011;14965;50.660;13.226;2022-08-19T08:56:44;47.03;;;27.90;;
27223;SDS011;14965;50.660;13.226;2022-08-19T08:59:16;49.03;;;28.13;;
27223;SDS011;14965;50.660;13.226;2022-08-19T09:01:49;45.25;;;25.60;;
27223;SDS011;14965;50.660;13.226;2022-08-19T09:04:16;52.30;;;28.15;;
27223;SDS011;14965;50.660;13.226;2022-08-19T09:06:44;44.60;;;25.77;;
27223;SDS011;14965;50.660;13.226;2022-08-19T09:09:21;46.10;;;25.08;;
27223;SDS011;14965;50.660;13.226;2022-08-19T09:11:56;47.17;;;23.00;;
27223;SDS011;14965;50.660;13.226;2022-08-19T09:14:39;37.22;;;21.63;;
27223;SDS011;14965;50.660;13.226;2022-08-19T09:17:13;36.05;;;19.92;;
27223;SDS011;14965;50.660;13.226;2022-08-19T09:19:48;29.42;;;17.33;;
27223;SDS011;14965;50.660;13.226;2022-08-19T09:22:20;28.13;;;18.05;;
27223;SDS011;14965;50.660;13.226;2022-08-19T09:24:47;26.75;;;17.33;;
27223;SDS011;14965;50.660;13.226;2022-08-19T09:27:14;34.00;;;20.88;;
27223;SDS011;14965;50.660;13.226;2022-08-19T09:29:39;43.08;;;24.30;;
27223;SDS011;14965;50.660;13.226;2022-08-19T09:32:05;48.80;;;27.58;;
27223;SDS011;14965;50.660;13.226;2022-08-19T09:34:31;44.67;;;29.13;;
27223;SDS011;14965;50.660;13.226;2022-08-19T09:36:59;50.72;;;30.63;;
27223;SDS011;14965;50.660;13.226;2022-08-19T09:39:25;55.28;;;33.25;;
27223;SDS011;14965;50.660;13.226;2022-08-19T09:41:51;68.35;;;37.35;;
27223;SDS011;14965;50.660;13.226;2022-08-19T09:44:17;82.47;;;38.95;;
27223;SDS011;14965;50.660;13.226;2022-08-19T09:46:43;73.03;;;40.17;;
27223;SDS011;14965;50.660;13.226;2022-08-19T09:49:09;83.90;;;44.72;;
27223;SDS011;14965;50.660;13.226;2022-08-19T09:51:35;87.65;;;44.03;;
27223;SDS011;14965;50.660;13.226;2022-08-19T09:54:02;75.63;;;42.47;;
27223;SDS011;14965;50.660;13.226;2022-08-19T09:56:30;69.47;;;41.28;;
27223;SDS011;14965;50.660;13.226;2022-08-19T09:58:57;69.93;;;40.45;;
27223;SDS011;14965;50.660;13.226;2022-08-19T10:01:25;65.05;;;39.10;;
27223;SDS011;14965;50.660;13.226;2022-08-19T10:03:53;66.18;;;40.45;;
27223;SDS011;14965;50.660;13.226;2022-08-19T10:06:22;77.57;;;44.78;;
27223;SDS011;14965;50.660;13.226;2022-08-19T10:08:51;85.38;;;47.92;;
27223;SDS011;14965;50.660;13.226;2022-08-19T10:11:19;80.03;;;47.65;;
27223;SDS011;14965;50.660;13.226;2022-08-19T10:13:46;83.55;;;48.05;;
27223;SDS011;14965;50.660;13.226;2022-08-19T10:16:13;72.40;;;45.17;;
27223;SDS011;14965;50.660;13.226;2022-08-19T10:18:43;73.47;;;45.75;;
27223;SDS011;14965;50.660;13.226;2022-08-19T10:21:10;74.45;;;44.28;;
27223;SDS011;14965;50.660;13.226;2022-08-19T10:23:40;73.35;;;43.63;;
27223;SDS011;14965;50.660;13.226;2022-08-19T10:26:09;74.95;;;43.88;;
27223;SDS011;14965;50.660;13.226;2022-08-19T10:28:36;69.45;;;42.53;;
27223;SDS011;14965;50.660;13.226;2022-08-19T10:31:03;73.18;;;43.30;;
27223;SDS011;14965;50.660;13.226;2022-08-19T10:33:30;58.97;;;37.50;;
27223;SDS011;14965;50.660;13.226;2022-08-19T10:35:58;64.47;;;37.53;;
27223;SDS011;14965;50.660;13.226;2022-08-19T10:38:25;64.55;;;38.05;;
27223;SDS011;14965;50.660;13.226;2022-08-19T10:40:51;64.93;;;38.90;;
27223;SDS011;14965;50.660;13.226;2022-08-19T10:43:17;62.33;;;37.80;;
27223;SDS011;14965;50.660;13.226;2022-08-19T10:45:48;62.30;;;38.53;;
27223;SDS011;14965;50.660;13.226;2022-08-19T10:48:17;59.38;;;35.75;;
27223;SDS011;14965;50.660;13.226;2022-08-19T10:50:43;58.38;;;37.15;;
27223;SDS011;14965;50.660;13.226;2022-08-19T10:53:09;54.42;;;36.40;;
27223;SDS011;14965;50.660;13.226;2022-08-19T10:55:34;54.42;;;36.67;;
27223;SDS011;14965;50.660;13.226;2022-08-19T10:58:01;57.17;;;38.47;;
27223;SDS011;14965;50.660;13.226;2022-08-19T11:00:26;52.17;;;36.72;;
27223;SDS011;14965;50.660;13.226;2022-08-19T11:02:53;56.83;;;39.40;;
27223;SDS011;14965;50.660;13.226;2022-08-19T11:05:19;56.50;;;38.38;;
27223;SDS011;14965;50.660;13.226;2022-08-19T11:07:45;59.83;;;41.20;;
27223;SDS011;14965;50.660;13.226;2022-08-19T11:10:12;58.15;;;40.33;;
27223;SDS011;14965;50.660;13.226;2022-08-19T11:12:40;62.33;;;43.30;;
27223;SDS011;14965;50.660;13.226;2022-08-19T11:15:06;58.25;;;40.58;;
27223;SDS011;14965;50.660;13.226;2022-08-19T11:17:34;58.70;;;42.53;;
27223;SDS011;14965;50.660;13.226;2022-08-19T11:20:02;64.95;;;42.60;;
27223;SDS011;14965;50.660;13.226;2022-08-19T11:22:28;60.65;;;40.85;;
27223;SDS011;14965;50.660;13.226;2022-08-19T11:24:54;67.47;;;43.33;;
27223;SDS011;14965;50.660;13.226;2022-08-19T11:27:21;58.05;;;40.70;;
27223;SDS011;14965;50.660;13.226;2022-08-19T11:29:50;55.22;;;39.80;;
27223;SDS011;14965;50.660;13.226;2022-08-19T11:32:21;54.50;;;39.17;;
27223;SDS011;14965;50.660;13.226;2022-08-19T11:34:47;57.33;;;39.60;;
27223;SDS011;14965;50.660;13.226;2022-08-19T11:37:14;69.18;;;43.92;;
27223;SDS011;14965;50.660;13.226;2022-08-19T11:39:41;55.65;;;41.03;;
27223;SDS011;14965;50.660;13.226;2022-08-19T11:42:07;60.00;;;41.22;;
27223;SDS011;14965;50.660;13.226;2022-08-19T11:44:33;61.17;;;40.95;;
27223;SDS011;14965;50.660;13.226;2022-08-19T11:46:59;55.42;;;40.25;;
27223;SDS011;14965;50.660;13.226;2022-08-19T11:49:24;54.95;;;39.88;;
27223;SDS011;14965;50.660;13.226;2022-08-19T11:51:50;55.40;;;39.78;;
27223;SDS011;14965;50.660;13.226;2022-08-19T11:54:18;53.53;;;38.63;;
27223;SDS011;14965;50.660;13.226;2022-08-19T11:56:44;57.13;;;40.85;;
27223;SDS011;14965;50.660;13.226;2022-08-19T11:59:11;64.28;;;43.10;;
27223;SDS011;14965;50.660;13.226;2022-08-19T12:01:37;56.33;;;39.92;;
27223;SDS011;14965;50.660;13.226;2022-08-19T12:04:03;54.53;;;38.50;;
27223;SDS011;14965;50.660;13.226;2022-08-19T12:06:30;54.45;;;40.30;;
27223;SDS011;14965;50.660;13.226;2022-08-19T12:08:58;55.67;;;40.60;;
27223;SDS011;14965;50.660;13.226;2022-08-19T12:11:28;58.00;;;40.55;;
27223;SDS011;14965;50.660;13.226;2022-08-19T12:13:54;58.08;;;40.88;;
27223;SDS011;14965;50.660;13.226;2022-08-19T12:16:21;59.65;;;41.03;;
27223;SDS011;14965;50.660;13.226;2022-08-19T12:18:50;58.13;;;41.35;;
27223;SDS011;14965;50.660;13.226;2022-08-19T12:21:18;57.63;;;41.63;;
27223;SDS011;14965;50.660;13.226;2022-08-19T12:23:47;66.70;;;43.50;;
27223;SDS011;14965;50.660;13.226;2022-08-19T12:26:15;73.57;;;48.70;;
27223;SDS011;14965;50.660;13.226;2022-08-19T12:28:44;73.32;;;46.70;;
27223;SDS011;14965;50.660;13.226;2022-08-19T12:31:10;78.72;;;47.97;;
27223;SDS011;14965;50.660;13.226;2022-08-19T12:33:36;72.68;;;46.50;;
27223;SDS011;14965;50.660;13.226;2022-08-19T12:36:02;87.70;;;49.45;;
27223;SDS011;14965;50.660;13.226;2022-08-19T12:38:32;81.43;;;49.40;;
27223;SDS011;14965;50.660;13.226;2022-08-19T12:40:59;90.20;;;51.00;;
27223;SDS011;14965;50.660;13.226;2022-08-19T12:43:25;95.13;;;50.35;;
27223;SDS011;14965;50.660;13.226;2022-08-19T12:45:53;82.40;;;49.30;;
27223;SDS011;14965;50.660;13.226;2022-08-19T12:48:19;94.18;;;52.00;;
27223;SDS011;14965;50.660;13.226;2022-08-19T12:50:45;95.45;;;53.33;;
27223;SDS011;14965;50.660;13.226;2022-08-19T12:53:11;91.68;;;52.95;;
27223;SDS011;14965;50.660;13.226;2022-08-19T12:55:37;95.22;;;52.45;;
27223;SDS011;14965;50.660;13.226;2022-08-19T12:58:03;100.97;;;54.42;;
27223;SDS011;14965;50.660;13.226;2022-08-19T13:00:29;93.35;;;52.53;;
27223;SDS011;14965;50.660;13.226;2022-08-19T13:02:57;104.38;;;53.83;;
27223;SDS011;14965;50.660;13.226;2022-08-19T13:05:25;102.33;;;54.40;;
27223;SDS011;14965;50.660;13.226;2022-08-19T13:07:54;102.45;;;53.42;;
27223;SDS011;14965;50.660;13.226;2022-08-19T13:10:23;90.15;;;51.13;;
27223;SDS011;14965;50.660;13.226;2022-08-19T13:12:53;102.07;;;53.50;;
27223;SDS011;14965;50.660;13.226;2022-08-19T13:15:20;97.97;;;53.20;;
27223;SDS011;14965;50.660;13.226;2022-08-19T13:17:48;88.10;;;50.50;;
27223;SDS011;14965;50.660;13.226;2022-08-19T13:20:18;82.88;;;48.30;;
27223;SDS011;14965;50.660;13.226;2022-08-19T13:22:46;85.05;;;47.25;;
27223;SDS011;14965;50.660;13.226;2022-08-19T13:25:13;83.47;;;48.25;;
27223;SDS011;14965;50.660;13.226;2022-08-19T13:27:40;90.93;;;49.67;;
27223;SDS011;14965;50.660;13.226;2022-08-19T13:30:07;72.85;;;44.28;;
27223;SDS011;14965;50.660;13.226;2022-08-19T13:32:36;86.07;;;46.63;;
27223;SDS011;14965;50.660;13.226;2022-08-19T13:35:02;68.63;;;43.42;;
27223;SDS011;14965;50.660;13.226;2022-08-19T13:37:30;63.92;;;39.72;;
27223;SDS011;14965;50.660;13.226;2022-08-19T13:39:56;79.20;;;41.38;;
27223;SDS011;14965;50.660;13.226;2022-08-19T13:42:22;63.00;;;38.38;;
27223;SDS011;14965;50.660;13.226;2022-08-19T13:44:47;59.55;;;36.85;;
27223;SDS011;14965;50.660;13.226;2022-08-19T13:47:13;62.97;;;37.80;;
27223;SDS011;14965;50.660;13.226;2022-08-19T13:49:39;71.75;;;39.70;;
27223;SDS011;14965;50.660;13.226;2022-08-19T13:52:05;68.90;;;40.42;;
27223;SDS011;14965;50.660;13.226;2022-08-19T13:54:32;74.30;;;41.30;;
27223;SDS011;14965;50.660;13.226;2022-08-19T13:56:58;92.28;;;46.55;;
27223;SDS011;14965;50.660;13.226;2022-08-19T13:59:24;85.38;;;45.25;;
27223;SDS011;14965;50.660;13.226;2022-08-19T14:01:50;79.70;;;44.33;;
27223;SDS011;14965;50.660;13.226;2022-08-19T14:04:17;85.95;;;47.05;;
27223;SDS011;14965;50.660;13.226;2022-08-19T14:06:43;83.25;;;44.88;;
27223;SDS011;14965;50.660;13.226;2022-08-19T14:09:08;84.63;;;46.28;;
27223;SDS011;14965;50.660;13.226;2022-08-19T14:11:35;87.63;;;46.90;;
27223;SDS011;14965;50.660;13.226;2022-08-19T14:14:01;104.20;;;48.75;;